Time;durP1;ratioP1;P1;durP2;ratioP2;P2;SDS_P1;SDS_P2;PMS_P1;PMS_P2;Temp;Humidity;BMP_temperature;BMP_pressure;BME280_temperature;BME280_humidity;BME280_pressure;Samples;Min_cycle;Max_cycle;Signal;HPM_P1;HPM_P2
2023/01/03 00:01:46;;;;;;;0.45;0.45;;;10.00;99.90;;;;;;5081650;28;20229;-64
2023/01/03 00:04:13;;;;;;;0.50;0.50;;;10.00;99.90;;;;;;5073660;28;20203;-62
2023/01/03 00:06:43;;;;;;;0.40;0.40;;;10.00;99.90;;;;;;5085114;28;20199;-63
2023/01/03 00:09:12;;;;;;;0.40;0.40;;;10.00;99.90;;;;;;5074611;28;20211;-63
2023/01/03 00:14:28;;;;;;;0.50;0.50;;;9.90;99.90;;;;;;5074406;28;20202;-62
2023/01/03 00:16:58;;;;;;;0.50;0.50;;;9.90;99.90;;;;;;5075690;28;20217;-63
2023/01/03 00:19:27;;;;;;;0.40;0.40;;;10.00;99.90;;;;;;5078273;28;20202;-63
2023/01/03 00:21:54;;;;;;;0.43;0.43;;;10.00;99.90;;;;;;5077263;28;20218;-63
2023/01/03 00:24:21;;;;;;;0.55;0.55;;;10.00;99.90;;;;;;5079191;28;20223;-63
2023/01/03 00:26:48;;;;;;;0.50;0.50;;;10.00;99.90;;;;;;5076549;28;20570;-62
2023/01/03 00:29:16;;;;;;;0.60;0.60;;;10.00;99.90;;;;;;5080106;28;20208;-63
2023/01/03 00:31:44;;;;;;;0.47;0.40;;;10.00;99.90;;;;;;5080885;28;20226;-64
2023/01/03 00:34:11;;;;;;;0.60;0.60;;;10.00;99.90;;;;;;5078240;28;20202;-63
2023/01/03 00:36:39;;;;;;;0.20;0.20;;;9.90;99.90;;;;;;5081560;28;20289;-63
2023/01/03 00:39:06;;;;;;;0.40;0.40;;;9.90;99.90;;;;;;5080263;28;20214;-63
2023/01/03 00:41:33;;;;;;;0.40;0.40;;;9.80;99.90;;;;;;5080113;28;20226;-63
2023/01/03 00:44:00;;;;;;;0.43;0.43;;;9.70;99.90;;;;;;5086128;28;20676;-62
2023/01/03 00:46:26;;;;;;;0.50;0.50;;;9.60;99.90;;;;;;5081128;28;20195;-63
2023/01/03 00:48:55;;;;;;;0.30;0.30;;;9.70;99.90;;;;;;5093582;28;20199;-63
2023/01/03 00:51:24;;;;;;;0.40;0.40;;;9.70;99.90;;;;;;5086336;28;20308;-63
2023/01/03 00:53:54;;;;;;;0.47;0.47;;;9.70;99.90;;;;;;5085764;28;20209;-63
2023/01/03 00:56:24;;;;;;;0.57;0.50;;;9.60;99.90;;;;;;5081736;28;20297;-63
2023/01/03 00:58:51;;;;;;;0.28;0.28;;;9.60;99.90;;;;;;5075242;28;20711;-63
2023/01/03 01:01:20;;;;;;;0.40;0.40;;;9.60;99.90;;;;;;5086789;28;20226;-63
2023/01/03 01:03:49;;;;;;;0.30;0.30;;;9.60;99.90;;;;;;5079265;28;20736;-62
2023/01/03 01:06:20;;;;;;;0.50;0.50;;;9.60;99.90;;;;;;5089377;28;20729;-64
2023/01/03 01:08:49;;;;;;;0.52;0.52;;;9.50;99.90;;;;;;5082962;28;20206;-62
2023/01/03 01:11:17;;;;;;;0.63;0.38;;;9.50;99.90;;;;;;5088962;28;20214;-63
2023/01/03 01:13:45;;;;;;;0.10;0.10;;;9.50;99.90;;;;;;5079783;28;20211;-63
2023/01/03 01:16:14;;;;;;;0.40;0.40;;;9.40;99.90;;;;;;5081289;28;20199;-63
2023/01/03 01:18:42;;;;;;;0.57;0.57;;;9.30;99.90;;;;;;5083534;28;20212;-64
2023/01/03 01:21:11;;;;;;;0.37;0.37;;;9.30;99.90;;;;;;5079713;28;20199;-63
2023/01/03 01:23:41;;;;;;;0.47;0.47;;;9.30;99.90;;;;;;5045527;28;1109237;-63
2023/01/03 01:26:12;;;;;;;0.50;0.50;;;9.30;99.90;;;;;;5080837;28;20550;-63
2023/01/03 01:28:39;;;;;;;0.50;0.50;;;9.30;99.90;;;;;;5087173;28;20199;-64
2023/01/03 01:31:07;;;;;;;0.30;0.30;;;9.20;99.90;;;;;;5081990;28;20210;-61
2023/01/03 01:33:35;;;;;;;0.40;0.40;;;9.20;99.90;;;;;;5082742;28;20199;-64
2023/01/03 01:36:06;;;;;;;0.22;0.22;;;9.20;99.90;;;;;;5083072;28;20610;-62
2023/01/03 01:38:33;;;;;;;0.50;0.50;;;9.20;99.90;;;;;;5073710;28;20207;-62
2023/01/03 01:41:02;;;;;;;0.57;0.43;;;9.20;99.90;;;;;;5083320;28;20208;-63
2023/01/03 01:46:20;;;;;;;0.40;0.40;;;9.20;99.90;;;;;;5082266;28;20210;-64
2023/01/03 01:48:49;;;;;;;0.43;0.43;;;9.20;99.90;;;;;;5085998;28;20294;-63
2023/01/03 01:51:17;;;;;;;0.70;0.65;;;9.20;99.90;;;;;;5082007;28;20261;-62
2023/01/03 01:53:45;;;;;;;0.60;0.60;;;9.30;99.90;;;;;;5079919;28;20286;-63
2023/01/03 01:56:18;;;;;;;0.38;0.38;;;9.30;99.90;;;;;;5085737;28;20207;-63
2023/01/03 01:58:48;;;;;;;0.55;0.55;;;9.30;99.90;;;;;;5077585;28;20249;-64
2023/01/03 02:01:18;;;;;;;0.70;0.50;;;9.30;99.90;;;;;;5089126;28;20218;-64
2023/01/03 02:03:49;;;;;;;0.38;0.38;;;9.30;99.90;;;;;;5080530;28;20200;-63
2023/01/03 02:06:18;;;;;;;0.60;0.60;;;9.20;99.90;;;;;;5083576;28;20211;-63
2023/01/03 02:08:45;;;;;;;0.33;0.33;;;9.10;99.90;;;;;;5080634;28;20614;-64
2023/01/03 02:11:29;;;;;;;0.40;0.40;;;9.10;99.90;;;;;;5095310;28;20209;-64
2023/01/03 02:14:11;;;;;;;0.38;0.38;;;9.00;99.90;;;;;;5086990;28;20567;-64
2023/01/03 02:16:59;;;;;;;0.20;0.20;;;8.90;99.90;;;;;;5077682;28;20202;-64
2023/01/03 02:19:59;;;;;;;0.30;0.30;;;8.90;99.90;;;;;;5097973;28;20218;-63
2023/01/03 02:23:08;;;;;;;0.40;0.40;;;8.80;99.90;;;;;;5088297;28;20693;-63
2023/01/03 02:26:11;;;;;;;0.63;0.63;;;8.70;99.90;;;;;;5033164;28;20199;-64
2023/01/03 02:29:11;;;;;;;0.63;0.40;;;8.60;99.90;;;;;;5068236;28;20198;-64
2023/01/03 02:31:45;;;;;;;0.32;0.32;;;8.60;99.90;;;;;;5067086;28;20223;-62
2023/01/03 02:34:20;;;;;;;0.50;0.50;;;8.50;99.90;;;;;;5083412;28;20213;-62
2023/01/03 02:36:58;;;;;;;0.88;0.52;;;8.60;99.90;;;;;;5079336;28;20994;-63
2023/01/03 02:39:28;;;;;;;0.50;0.50;;;8.50;99.90;;;;;;5074674;28;20214;-63
2023/01/03 02:44:46;;;;;;;1.08;0.40;;;8.60;99.90;;;;;;5072241;28;20205;-64
2023/01/03 02:47:15;;;;;;;0.30;0.30;;;8.60;99.90;;;;;;5080762;28;20669;-63
2023/01/03 02:49:46;;;;;;;0.45;0.45;;;8.60;99.90;;;;;;5079235;28;20539;-64
2023/01/03 02:52:15;;;;;;;0.30;0.30;;;8.60;99.90;;;;;;5087288;28;20330;-63
2023/01/03 02:54:47;;;;;;;0.50;0.50;;;8.60;99.90;;;;;;5094416;28;20285;-63
2023/01/03 02:57:18;;;;;;;0.20;0.20;;;8.60;99.90;;;;;;5083678;28;20218;-63
2023/01/03 02:59:49;;;;;;;0.35;0.35;;;8.60;99.90;;;;;;5078199;28;20215;-63
2023/01/03 03:02:19;;;;;;;0.50;0.50;;;8.60;99.90;;;;;;5078612;28;20223;-64
2023/01/03 03:04:50;;;;;;;0.47;0.47;;;8.70;99.90;;;;;;5082398;28;20667;-63
2023/01/03 03:07:22;;;;;;;0.38;0.38;;;8.70;99.90;;;;;;5081676;28;20199;-63
2023/01/03 03:15:26;;;;;;;0.52;0.52;;;8.70;99.90;;;;;;5087444;28;20206;-63
2023/01/03 03:18:01;;;;;;;0.30;0.30;;;8.60;99.90;;;;;;5074779;28;20455;-64
2023/01/03 03:26:09;;;;;;;0.40;0.40;;;8.40;99.90;;;;;;5081679;28;20297;-64
2023/01/03 03:28:38;;;;;;;0.60;0.60;;;8.40;99.90;;;;;;5082909;28;20203;-63
2023/01/03 03:31:09;;;;;;;0.60;0.50;;;8.40;99.90;;;;;;5082543;28;20206;-62
2023/01/03 03:33:42;;;;;;;0.30;0.30;;;8.40;99.90;;;;;;5082153;28;20297;-62
2023/01/03 03:36:15;;;;;;;0.40;0.40;;;8.40;99.90;;;;;;5073734;28;20195;-63
2023/01/03 03:38:44;;;;;;;0.50;0.50;;;8.40;99.90;;;;;;5082902;28;20217;-63
2023/01/03 03:47:04;;;;;;;0.50;0.50;;;8.50;99.90;;;;;;5082660;28;20273;-64
2023/01/03 03:49:38;;;;;;;0.52;0.52;;;8.60;99.90;;;;;;5074196;28;20195;-62
2023/01/03 03:52:08;;;;;;;0.70;0.63;;;8.60;99.90;;;;;;5077845;28;20227;-63
2023/01/03 03:54:39;;;;;;;0.50;0.50;;;8.60;99.90;;;;;;5086026;28;20207;-63
2023/01/03 03:57:12;;;;;;;0.60;0.60;;;8.60;99.90;;;;;;5065012;28;20203;-62
2023/01/03 03:59:41;;;;;;;0.40;0.40;;;8.60;99.90;;;;;;5077374;28;20227;-63
2023/01/03 04:02:09;;;;;;;0.30;0.30;;;8.50;99.90;;;;;;5074957;28;20223;-64
2023/01/03 04:04:43;;;;;;;0.47;0.47;;;8.50;99.90;;;;;;5068292;28;20203;-62
2023/01/03 04:07:10;;;;;;;0.40;0.40;;;8.40;99.90;;;;;;5076978;28;20230;-64
2023/01/03 04:09:37;;;;;;;0.40;0.40;;;8.30;99.90;;;;;;5077333;28;20198;-62
2023/01/03 04:12:04;;;;;;;0.43;0.30;;;8.30;99.90;;;;;;5083545;28;20229;-62
2023/01/03 04:14:31;;;;;;;0.38;0.38;;;8.30;99.90;;;;;;5066049;28;20207;-62
2023/01/03 04:16:58;;;;;;;0.30;0.30;;;8.30;99.90;;;;;;5077531;28;20229;-62
2023/01/03 04:19:24;;;;;;;0.43;0.43;;;8.30;99.90;;;;;;5081129;28;20666;-62
2023/01/03 04:21:52;;;;;;;0.32;0.32;;;8.30;99.90;;;;;;5080822;28;20228;-64
2023/01/03 04:24:21;;;;;;;0.40;0.40;;;8.30;99.90;;;;;;5074559;28;20712;-63
2023/01/03 04:26:48;;;;;;;0.40;0.40;;;8.30;99.90;;;;;;5069625;28;20195;-63
2023/01/03 04:29:15;;;;;;;0.32;0.32;;;8.40;99.90;;;;;;5068460;28;20195;-63
2023/01/03 04:31:41;;;;;;;0.50;0.50;;;8.40;99.90;;;;;;5073001;28;20218;-64
2023/01/03 04:34:09;;;;;;;0.50;0.50;;;8.50;99.90;;;;;;5073091;28;20203;-64
2023/01/03 04:36:36;;;;;;;0.40;0.40;;;8.60;99.90;;;;;;5069586;28;20199;-63
2023/01/03 04:39:04;;;;;;;0.43;0.43;;;8.60;99.90;;;;;;5074669;28;20253;-64
2023/01/03 04:41:31;;;;;;;0.57;0.57;;;8.70;99.90;;;;;;5070158;28;20570;-62
2023/01/03 04:44:03;;;;;;;0.40;0.40;;;8.60;99.90;;;;;;5071346;28;20207;-62
2023/01/03 04:46:31;;;;;;;0.40;0.40;;;8.70;99.90;;;;;;5073565;28;20191;-62
2023/01/03 04:48:58;;;;;;;0.50;0.50;;;8.60;99.90;;;;;;5075884;28;20203;-63
2023/01/03 04:51:26;;;;;;;0.40;0.40;;;8.60;99.90;;;;;;5077944;28;20223;-62
2023/01/03 04:53:52;;;;;;;0.40;0.40;;;8.50;99.90;;;;;;5069251;28;20340;-62
2023/01/03 04:56:25;;;;;;;0.50;0.50;;;8.50;99.90;;;;;;5091456;28;20203;-63
2023/01/03 04:58:52;;;;;;;0.50;0.50;;;8.40;99.90;;;;;;5081313;28;20287;-63
2023/01/03 05:01:19;;;;;;;0.60;0.60;;;8.40;99.90;;;;;;5083855;28;20226;-63
2023/01/03 05:03:46;;;;;;;0.52;0.52;;;8.50;99.90;;;;;;5077286;28;20356;-64
2023/01/03 05:06:13;;;;;;;0.68;0.68;;;8.50;99.90;;;;;;5084603;28;20199;-63
2023/01/03 05:08:40;;;;;;;0.50;0.50;;;8.50;99.90;;;;;;5077460;28;20203;-62
2023/01/03 05:11:07;;;;;;;0.55;0.55;;;8.50;99.90;;;;;;5085485;28;20199;-64
2023/01/03 05:13:36;;;;;;;0.60;0.60;;;8.50;99.90;;;;;;5076750;28;20196;-62
2023/01/03 05:16:07;;;;;;;0.50;0.50;;;8.50;99.90;;;;;;5069611;28;20211;-63
2023/01/03 05:18:35;;;;;;;1.20;0.50;;;8.40;99.90;;;;;;5072239;28;20572;-62
2023/01/03 05:26:37;;;;;;;0.50;0.50;;;8.40;99.90;;;;;;5070814;28;20713;-62
2023/01/03 05:29:06;;;;;;;0.50;0.45;;;8.30;99.90;;;;;;5083968;28;20599;-62
2023/01/03 05:31:33;;;;;;;0.30;0.30;;;8.30;99.90;;;;;;5084741;28;20214;-63
2023/01/03 05:34:00;;;;;;;0.40;0.40;;;8.20;99.90;;;;;;5082144;28;20225;-64
2023/01/03 05:36:27;;;;;;;0.30;0.30;;;8.20;99.90;;;;;;5084632;28;20281;-62
2023/01/03 05:38:54;;;;;;;0.55;0.55;;;8.20;99.90;;;;;;5084050;28;20225;-62
2023/01/03 05:44:01;;;;;;;0.35;0.35;;;8.10;99.90;;;;;;5080839;28;20643;-62
2023/01/03 05:46:29;;;;;;;0.40;0.40;;;8.10;99.90;;;;;;5081707;28;20260;-62
2023/01/03 05:48:56;;;;;;;0.50;0.50;;;8.00;99.90;;;;;;5084627;28;20218;-64
2023/01/03 05:51:23;;;;;;;0.30;0.30;;;8.00;99.90;;;;;;5081254;28;20242;-61
2023/01/03 05:53:50;;;;;;;0.50;0.50;;;7.90;99.90;;;;;;5086348;28;20206;-63
2023/01/03 05:56:17;;;;;;;0.63;0.63;;;7.90;99.90;;;;;;5081815;28;20673;-63
2023/01/03 05:58:44;;;;;;;0.60;0.60;;;7.90;99.90;;;;;;5079326;28;20219;-63
2023/01/03 06:01:12;;;;;;;0.55;0.55;;;8.00;99.90;;;;;;5085151;28;20873;-62
2023/01/03 06:03:42;;;;;;;0.68;0.68;;;8.00;99.90;;;;;;5078972;28;20198;-63
2023/01/03 06:06:09;;;;;;;0.50;0.50;;;7.90;99.90;;;;;;5086400;28;20195;-63
2023/01/03 06:08:36;;;;;;;0.70;0.70;;;8.00;99.90;;;;;;5079764;28;20248;-62
2023/01/03 06:11:05;;;;;;;0.70;0.70;;;8.00;99.90;;;;;;5087506;28;20195;-63
2023/01/03 06:13:32;;;;;;;0.70;0.70;;;8.00;99.90;;;;;;5078461;28;20200;-63
2023/01/03 06:18:49;;;;;;;0.32;0.32;;;8.00;99.90;;;;;;5082477;28;20230;-64
2023/01/03 06:21:16;;;;;;;0.75;0.70;;;7.90;99.90;;;;;;5081262;28;20323;-62
2023/01/03 06:23:44;;;;;;;0.50;0.50;;;7.90;99.90;;;;;;5083133;28;20207;-63
2023/01/03 06:26:11;;;;;;;0.50;0.50;;;7.90;99.90;;;;;;5081135;28;20207;-64
2023/01/03 06:28:38;;;;;;;0.68;0.68;;;7.80;99.90;;;;;;5086185;28;20216;-63
2023/01/03 06:31:05;;;;;;;0.70;0.70;;;7.80;99.90;;;;;;5076018;28;20199;-63
2023/01/03 06:33:32;;;;;;;0.50;0.50;;;7.80;99.90;;;;;;5074696;28;20203;-64
2023/01/03 06:36:03;;;;;;;0.60;0.60;;;7.80;99.90;;;;;;5083630;28;20199;-64
2023/01/03 06:38:30;;;;;;;0.52;0.52;;;7.80;99.90;;;;;;5063782;28;20222;-62
2023/01/03 06:40:57;;;;;;;0.50;0.50;;;7.80;99.90;;;;;;5081396;28;20207;-64
2023/01/03 06:43:24;;;;;;;0.70;0.70;;;7.80;99.90;;;;;;5081504;28;20299;-63
2023/01/03 06:54:07;;;;;;;0.90;0.90;;;7.60;99.90;;;;;;5086684;28;20328;-63
2023/01/03 06:56:34;;;;;;;0.80;0.80;;;7.60;99.90;;;;;;5079557;28;20202;-62
2023/01/03 06:59:01;;;;;;;0.60;0.60;;;7.50;99.90;;;;;;5079949;28;20601;-63
2023/01/03 07:01:28;;;;;;;0.57;0.52;;;7.40;99.90;;;;;;5084635;28;20223;-62
2023/01/03 07:03:55;;;;;;;0.60;0.60;;;7.40;99.90;;;;;;5080423;28;20230;-63
2023/01/03 07:06:23;;;;;;;0.40;0.40;;;7.40;99.90;;;;;;5086221;28;20199;-63
2023/01/03 07:08:51;;;;;;;0.63;0.63;;;7.30;99.90;;;;;;5072608;28;20203;-62
2023/01/03 07:11:17;;;;;;;0.70;0.70;;;7.40;99.90;;;;;;5081171;28;20225;-63
2023/01/03 07:13:58;;;;;;;0.70;0.70;;;7.40;99.90;;;;;;5080236;28;20627;-63
2023/01/03 07:16:27;;;;;;;1.02;0.70;;;7.40;99.90;;;;;;5073738;28;20202;-64
2023/01/03 07:18:54;;;;;;;0.43;0.43;;;7.40;99.90;;;;;;5080039;28;20209;-63
2023/01/03 07:21:23;;;;;;;0.70;0.70;;;7.40;99.90;;;;;;5082209;28;20690;-63
2023/01/03 07:23:51;;;;;;;0.60;0.60;;;7.40;99.90;;;;;;5078901;28;20792;-64
2023/01/03 07:26:18;;;;;;;0.50;0.50;;;7.40;99.90;;;;;;5081801;28;20222;-63
2023/01/03 07:28:45;;;;;;;0.70;0.70;;;7.30;99.90;;;;;;5082849;28;20205;-63
2023/01/03 07:31:12;;;;;;;0.40;0.40;;;7.30;99.90;;;;;;5080246;28;20199;-64
2023/01/03 07:33:39;;;;;;;0.60;0.60;;;7.30;99.90;;;;;;5084712;28;20207;-63
2023/01/03 07:36:08;;;;;;;0.68;0.68;;;7.30;99.90;;;;;;5079615;28;20587;-62
2023/01/03 07:38:37;;;;;;;0.75;0.70;;;7.30;99.90;;;;;;5092363;28;20199;-64
2023/01/03 07:41:06;;;;;;;0.82;0.70;;;7.30;99.90;;;;;;5080167;28;20229;-62
2023/01/03 07:43:36;;;;;;;0.70;0.70;;;7.30;99.90;;;;;;5089633;28;20199;-63
2023/01/03 07:46:06;;;;;;;0.60;0.60;;;7.20;99.90;;;;;;5071166;28;20202;-64
2023/01/03 07:48:33;;;;;;;0.70;0.70;;;7.20;99.90;;;;;;5074630;28;20222;-63
2023/01/03 07:51:00;;;;;;;0.80;0.80;;;7.10;99.90;;;;;;5077020;28;20211;-64
2023/01/03 07:53:27;;;;;;;0.93;0.88;;;7.00;99.90;;;;;;5074271;28;20290;-63
2023/01/03 07:56:02;;;;;;;0.63;0.63;;;7.00;99.90;;;;;;5084548;28;20195;-64
2023/01/03 07:58:29;;;;;;;0.70;0.70;;;7.00;99.90;;;;;;5067021;28;20203;-64
2023/01/03 08:00:56;;;;;;;0.70;0.70;;;7.10;99.90;;;;;;5082662;28;20629;-63
2023/01/03 08:03:22;;;;;;;0.57;0.57;;;7.00;99.90;;;;;;5078718;28;20222;-63
2023/01/03 08:05:49;;;;;;;0.70;0.70;;;7.10;99.90;;;;;;5075769;28;20199;-63
2023/01/03 08:08:16;;;;;;;0.50;0.50;;;7.20;99.90;;;;;;5075190;28;20208;-62
2023/01/03 08:13:28;;;;;;;0.50;0.50;;;7.30;99.90;;;;;;5077188;28;20198;-63
2023/01/03 08:15:56;;;;;;;0.60;0.60;;;7.40;99.90;;;;;;5068493;28;20206;-62
2023/01/03 08:18:25;;;;;;;0.50;0.50;;;7.50;99.90;;;;;;5088012;28;20207;-64
2023/01/03 08:20:53;;;;;;;0.75;0.75;;;7.40;99.90;;;;;;5072337;28;20329;-63
2023/01/03 08:23:20;;;;;;;0.60;0.60;;;7.50;99.90;;;;;;5084639;28;20210;-63
2023/01/03 08:25:47;;;;;;;0.90;0.90;;;7.50;99.90;;;;;;5074973;28;20199;-63
2023/01/03 08:28:14;;;;;;;1.08;1.08;;;7.50;99.90;;;;;;5086258;28;20203;-63
2023/01/03 08:30:46;;;;;;;0.83;0.83;;;7.60;99.90;;;;;;5078939;28;20203;-64
2023/01/03 08:33:16;;;;;;;0.90;0.90;;;7.60;99.90;;;;;;5071306;28;20219;-64
2023/01/03 08:35:46;;;;;;;1.00;1.00;;;7.50;99.90;;;;;;5078716;28;20199;-64
2023/01/03 08:38:18;;;;;;;1.10;1.10;;;7.60;99.90;;;;;;5077675;28;20203;-63
2023/01/03 08:40:47;;;;;;;0.90;0.90;;;7.60;99.90;;;;;;5083008;28;20207;-63
2023/01/03 08:43:16;;;;;;;0.90;0.90;;;7.60;99.90;;;;;;5079741;28;20780;-63
2023/01/03 08:45:45;;;;;;;1.10;1.10;;;7.60;99.90;;;;;;5084311;28;20209;-65
2023/01/03 08:48:12;;;;;;;0.98;0.98;;;7.60;99.90;;;;;;5079388;28;20584;-62
2023/01/03 08:50:39;;;;;;;0.90;0.90;;;7.60;99.90;;;;;;5081957;28;20206;-65
2023/01/03 08:53:06;;;;;;;1.00;1.00;;;7.60;99.90;;;;;;5079940;28;20218;-64
2023/01/03 08:55:34;;;;;;;0.80;0.80;;;7.70;99.90;;;;;;5070003;28;20245;-63
2023/01/03 08:58:00;;;;;;;1.20;1.10;;;7.70;99.90;;;;;;5072636;28;20206;-65
2023/01/03 09:00:28;;;;;;;0.82;0.82;;;7.80;99.90;;;;;;5080001;28;20223;-64
2023/01/03 09:02:59;;;;;;;1.10;1.00;;;7.80;99.90;;;;;;5085297;28;20313;-63
2023/01/03 09:05:26;;;;;;;0.90;0.90;;;7.80;99.90;;;;;;5087698;28;20206;-63
2023/01/03 09:07:53;;;;;;;0.90;0.90;;;7.80;99.90;;;;;;5087832;28;20215;-64
2023/01/03 09:10:21;;;;;;;1.00;1.00;;;7.90;99.90;;;;;;5085938;28;20203;-64
2023/01/03 09:12:47;;;;;;;0.75;0.75;;;7.90;99.90;;;;;;5085076;28;20226;-62
2023/01/03 09:15:14;;;;;;;0.80;0.80;;;7.90;99.90;;;;;;5083433;28;20198;-62
2023/01/03 09:17:43;;;;;;;0.90;0.90;;;7.90;99.90;;;;;;5078720;28;20202;-63
2023/01/03 09:20:13;;;;;;;1.23;1.10;;;7.90;99.90;;;;;;5087550;28;20767;-63
2023/01/03 09:22:40;;;;;;;1.40;1.40;;;7.90;99.90;;;;;;5078066;28;20221;-63
2023/01/03 09:25:08;;;;;;;1.37;1.37;;;7.90;99.90;;;;;;5076716;28;20367;-62
2023/01/03 09:27:35;;;;;;;0.90;0.90;;;7.90;99.90;;;;;;5078740;28;20209;-64
2023/01/03 09:30:02;;;;;;;0.90;0.90;;;7.90;99.90;;;;;;5076942;28;20217;-62
2023/01/03 09:32:29;;;;;;;0.88;0.88;;;8.00;99.90;;;;;;5078281;28;20238;-63
2023/01/03 09:34:55;;;;;;;0.80;0.80;;;8.00;99.90;;;;;;5079331;28;20655;-63
2023/01/03 09:37:24;;;;;;;0.77;0.77;;;8.00;99.90;;;;;;5084943;28;20209;-63
2023/01/03 09:39:50;;;;;;;0.68;0.68;;;8.10;99.90;;;;;;5085678;28;20230;-63
2023/01/03 09:45:08;;;;;;;0.70;0.70;;;8.10;99.90;;;;;;5077789;28;20252;-62
2023/01/03 09:47:36;;;;;;;0.67;0.67;;;8.20;99.90;;;;;;5077359;28;20206;-62
2023/01/03 09:50:03;;;;;;;0.70;0.70;;;8.20;99.90;;;;;;5078907;28;20201;-64
2023/01/03 10:04:09;;;;;;;0.70;0.70;;;8.60;99.90;;;;;;5076836;28;20316;-64
2023/01/03 10:06:49;;;;;;;0.60;0.60;;;8.70;99.90;;;;;;5080526;28;20195;-63
2023/01/03 10:09:32;;;;;;;0.70;0.70;;;8.70;99.90;;;;;;5083445;28;20202;-63
2023/01/03 10:12:08;;;;;;;0.80;0.80;;;8.80;99.90;;;;;;5084722;28;20241;-64
2023/01/03 10:14:50;;;;;;;0.70;0.70;;;8.90;99.90;;;;;;5072303;28;20233;-62
2023/01/03 10:17:25;;;;;;;0.60;0.60;;;9.10;99.90;;;;;;5076696;28;20578;-62
2023/01/03 10:20:19;;;;;;;0.70;0.70;;;9.30;99.90;;;;;;5078187;28;20211;-62
2023/01/03 10:22:48;;;;;;;0.85;0.75;;;9.60;99.90;;;;;;5079951;28;20225;-63
2023/01/03 10:25:20;;;;;;;0.63;0.63;;;9.70;99.90;;;;;;5082800;28;20206;-64
2023/01/03 10:27:50;;;;;;;0.70;0.70;;;9.80;99.90;;;;;;5081289;28;20684;-64
2023/01/03 10:30:20;;;;;;;0.47;0.47;;;10.00;99.90;;;;;;5083279;28;20496;-63
2023/01/03 10:33:15;;;;;;;0.73;0.73;;;10.10;99.90;;;;;;5080571;28;20356;-62
2023/01/03 10:35:42;;;;;;;0.70;0.70;;;10.20;99.90;;;;;;5046951;28;20205;-61
2023/01/03 10:38:09;;;;;;;0.70;0.70;;;10.30;99.90;;;;;;5077330;28;20223;-62
2023/01/03 10:40:41;;;;;;;0.70;0.70;;;10.30;99.90;;;;;;5084697;28;20322;-64
2023/01/03 10:43:10;;;;;;;0.60;0.60;;;10.40;99.90;;;;;;5077824;28;20223;-63
2023/01/03 10:45:54;;;;;;;0.60;0.60;;;10.60;99.90;;;;;;5086793;28;20204;-63
2023/01/03 10:48:21;;;;;;;0.60;0.60;;;10.70;99.90;;;;;;5081370;28;20221;-64
2023/01/03 10:50:49;;;;;;;0.60;0.60;;;10.80;99.90;;;;;;5077698;28;20199;-63
2023/01/03 10:53:19;;;;;;;0.83;0.60;;;10.80;99.90;;;;;;5072629;28;20219;-63
2023/01/03 10:55:50;;;;;;;0.70;0.70;;;10.90;99.90;;;;;;5076925;28;20538;-62
2023/01/03 10:58:22;;;;;;;0.80;0.80;;;11.00;99.90;;;;;;5082618;28;20203;-63
2023/01/03 11:00:49;;;;;;;0.70;0.70;;;11.00;99.90;;;;;;5075532;28;20206;-62
2023/01/03 11:03:19;;;;;;;0.60;0.60;;;11.10;99.90;;;;;;5081227;28;20237;-64
2023/01/03 11:05:48;;;;;;;0.70;0.70;;;11.10;99.90;;;;;;5084462;28;20290;-64
2023/01/03 11:08:18;;;;;;;0.70;0.70;;;11.20;99.90;;;;;;5085160;28;20290;-63
2023/01/03 11:10:58;;;;;;;0.50;0.50;;;11.20;99.90;;;;;;5092425;28;20278;-64
2023/01/03 11:13:31;;;;;;;0.70;0.70;;;11.30;99.90;;;;;;5080211;28;20203;-63
2023/01/03 11:15:59;;;;;;;0.70;0.70;;;11.40;99.90;;;;;;5079737;28;20203;-64
2023/01/03 11:18:27;;;;;;;0.63;0.63;;;11.50;99.90;;;;;;5080410;28;20195;-64
2023/01/03 11:21:08;;;;;;;0.50;0.50;;;11.60;99.90;;;;;;5075559;28;20594;-62
2023/01/03 11:24:00;;;;;;;0.33;0.33;;;11.70;99.90;;;;;;5077694;28;20214;-62
2023/01/03 11:26:41;;;;;;;0.53;0.53;;;11.70;99.90;;;;;;5082509;28;20198;-62
2023/01/03 11:29:32;;;;;;;0.60;0.60;;;11.80;99.90;;;;;;5072685;28;20203;-64
2023/01/03 11:32:08;;;;;;;0.90;0.90;;;11.80;99.90;;;;;;5073612;28;20229;-62
2023/01/03 11:34:59;;;;;;;0.40;0.40;;;11.80;99.90;;;;;;5073774;28;20285;-64
2023/01/03 11:37:33;;;;;;;0.60;0.60;;;11.90;99.90;;;;;;5079325;28;20256;-64
2023/01/03 11:40:13;;;;;;;0.60;0.60;;;11.90;99.90;;;;;;5085673;28;20570;-62
2023/01/03 11:42:54;;;;;;;0.63;0.63;;;11.90;99.90;;;;;;5067127;28;20287;-62
2023/01/03 11:45:50;;;;;;;0.68;0.68;;;12.00;99.90;;;;;;5070332;28;20211;-63
2023/01/03 11:48:51;;;;;;;0.50;0.50;;;12.00;99.90;;;;;;5065799;28;20286;-62
2023/01/03 11:51:24;;;;;;;0.70;0.70;;;12.00;99.90;;;;;;5081599;28;20594;-62
2023/01/03 11:54:01;;;;;;;0.70;0.70;;;12.10;99.90;;;;;;5085748;28;20543;-62
2023/01/03 11:56:30;;;;;;;0.40;0.40;;;12.10;99.90;;;;;;5085240;28;20213;-62
2023/01/03 11:59:24;;;;;;;0.70;0.70;;;12.10;99.90;;;;;;5080593;28;20206;-62
2023/01/03 12:02:33;;;;;;;0.50;0.50;;;12.10;99.90;;;;;;5077347;28;20227;-63
2023/01/03 12:05:19;;;;;;;0.57;0.57;;;12.10;99.90;;;;;;4969651;28;20294;-63
2023/01/03 12:07:54;;;;;;;0.63;0.63;;;12.20;99.90;;;;;;5060220;28;20207;-63
2023/01/03 12:10:26;;;;;;;0.80;0.80;;;12.00;99.90;;;;;;5083333;28;20306;-63
2023/01/03 12:13:13;;;;;;;0.60;0.60;;;12.00;99.90;;;;;;5078600;28;20696;-63
2023/01/03 12:15:46;;;;;;;0.70;0.70;;;12.00;99.90;;;;;;5077963;28;20617;-64
2023/01/03 12:18:20;;;;;;;0.70;0.70;;;11.90;99.90;;;;;;5082965;28;20209;-63
2023/01/03 12:20:53;;;;;;;0.70;0.70;;;11.80;99.90;;;;;;5073429;28;20689;-63
2023/01/03 12:23:32;;;;;;;0.80;0.80;;;11.60;99.90;;;;;;5078953;28;20233;-63
2023/01/03 12:26:04;;;;;;;0.70;0.70;;;11.50;99.90;;;;;;5080147;28;20195;-63
2023/01/03 12:28:35;;;;;;;0.70;0.70;;;11.50;99.90;;;;;;5062813;28;20588;-64
2023/01/03 12:31:07;;;;;;;0.60;0.60;;;11.50;99.90;;;;;;5079766;28;20543;-64
2023/01/03 12:33:41;;;;;;;0.65;0.65;;;11.50;99.90;;;;;;5060306;28;20216;-65
2023/01/03 12:36:20;;;;;;;0.60;0.60;;;11.50;99.90;;;;;;5085137;28;20210;-62
2023/01/03 12:39:06;;;;;;;0.50;0.50;;;11.60;99.90;;;;;;5086345;28;20648;-62
2023/01/03 12:41:38;;;;;;;0.60;0.60;;;11.60;99.90;;;;;;5086945;28;20226;-63
2023/01/03 12:44:12;;;;;;;0.50;0.50;;;11.60;99.90;;;;;;5085381;28;20215;-63
2023/01/03 12:46:46;;;;;;;0.50;0.50;;;11.60;99.90;;;;;;5081413;28;20198;-64
2023/01/03 12:49:17;;;;;;;0.60;0.60;;;11.70;99.90;;;;;;5085201;28;20205;-63
2023/01/03 12:51:44;;;;;;;0.52;0.52;;;11.70;99.90;;;;;;5081471;28;20226;-63
2023/01/03 12:54:27;;;;;;;0.30;0.30;;;11.80;99.90;;;;;;5083691;28;20198;-62
2023/01/03 12:57:12;;;;;;;0.53;0.53;;;11.80;99.90;;;;;;5083997;28;20575;-62
2023/01/03 12:59:54;;;;;;;0.47;0.47;;;11.80;99.90;;;;;;5073359;28;20208;-62
2023/01/03 13:02:29;;;;;;;0.60;0.60;;;11.80;99.90;;;;;;5084525;28;20361;-62
2023/01/03 13:05:00;;;;;;;0.80;0.80;;;11.80;99.90;;;;;;5085827;28;20248;-64
2023/01/03 13:07:31;;;;;;;0.50;0.50;;;11.90;99.90;;;;;;5086088;28;20194;-62
2023/01/03 13:10:04;;;;;;;0.67;0.67;;;12.00;99.90;;;;;;5079610;28;20199;-64
2023/01/03 13:12:33;;;;;;;0.50;0.50;;;12.00;99.90;;;;;;5068002;28;20218;-63
2023/01/03 13:15:14;;;;;;;0.63;0.63;;;12.00;99.90;;;;;;5100967;28;20221;-61
2023/01/03 13:17:47;;;;;;;0.80;0.80;;;12.00;99.90;;;;;;5079325;28;20285;-64
2023/01/03 13:20:36;;;;;;;0.90;0.90;;;12.00;99.90;;;;;;5083491;28;20198;-63
2023/01/03 13:23:29;;;;;;;0.87;0.87;;;12.00;99.90;;;;;;5087619;28;20244;-62
2023/01/03 13:26:21;;;;;;;0.60;0.60;;;12.00;99.90;;;;;;5084052;28;20206;-64
2023/01/03 13:28:50;;;;;;;0.70;0.70;;;12.10;99.90;;;;;;5081409;28;20587;-61
2023/01/03 13:32:02;;;;;;;0.90;0.90;;;12.10;99.90;;;;;;5079713;28;20199;-63
2023/01/03 13:34:36;;;;;;;0.70;0.70;;;12.10;99.90;;;;;;5074531;28;20573;-62
2023/01/03 13:37:18;;;;;;;0.80;0.80;;;12.10;99.90;;;;;;5084250;28;20574;-62
2023/01/03 13:39:58;;;;;;;0.70;0.70;;;12.30;99.90;;;;;;5080501;28;20199;-64
2023/01/03 13:42:29;;;;;;;0.60;0.60;;;12.40;99.90;;;;;;5075976;28;20226;-62
2023/01/03 13:45:35;;;;;;;0.60;0.60;;;12.40;99.90;;;;;;5074439;28;20195;-62
2023/01/03 13:48:15;;;;;;;0.90;0.90;;;12.50;99.90;;;;;;5093545;28;20203;-62
2023/01/03 13:51:03;;;;;;;0.77;0.77;;;12.60;99.90;;;;;;5089807;28;20237;-62
2023/01/03 13:53:35;;;;;;;0.73;0.73;;;12.60;99.90;;;;;;5084529;28;20217;-64
2023/01/03 13:56:21;;;;;;;1.03;0.97;;;12.60;99.90;;;;;;5099800;28;20202;-63
2023/01/03 13:58:51;;;;;;;0.50;0.50;;;12.50;99.90;;;;;;5091815;28;20222;-62
2023/01/03 14:01:29;;;;;;;0.90;0.90;;;12.50;99.90;;;;;;5091320;28;20286;-64
2023/01/03 14:04:19;;;;;;;0.80;0.80;;;12.50;99.90;;;;;;5086397;28;20266;-64
2023/01/03 14:07:04;;;;;;;0.60;0.60;;;12.40;99.90;;;;;;5074998;28;20194;-63
2023/01/03 14:09:55;;;;;;;0.70;0.70;;;12.40;99.90;;;;;;5079452;28;20203;-61
2023/01/03 14:12:59;;;;;;;0.70;0.70;;;12.50;99.90;;;;;;5083896;28;20245;-65
2023/01/03 14:15:30;;;;;;;0.60;0.60;;;12.50;99.90;;;;;;5080660;28;20195;-65
2023/01/03 14:18:01;;;;;;;0.77;0.77;;;12.50;99.90;;;;;;5085956;28;20205;-64
2023/01/03 14:20:32;;;;;;;0.70;0.70;;;12.50;99.90;;;;;;5077031;28;20203;-65